createdAt,value
2019-01-18T00:01:01.403Z,46.80
2019-01-18T00:03:28.585Z,45.80
2019-01-18T00:05:55.763Z,45.70
2019-01-18T00:08:22.782Z,46.40
2019-01-18T00:10:49.964Z,46.50
2019-01-18T00:13:17.667Z,46.40
2019-01-18T00:15:44.793Z,47.10
2019-01-18T00:18:12.447Z,47.60
2019-01-18T00:20:39.708Z,47.90
2019-01-18T00:23:06.836Z,48.70
2019-01-18T00:25:33.899Z,48.70
2019-01-18T00:28:00.904Z,49.20
2019-01-18T00:30:27.598Z,50.80
2019-01-18T00:32:54.591Z,52.10
2019-01-18T00:35:22.411Z,52.80
2019-01-18T00:37:50.179Z,54.30
2019-01-18T00:40:17.829Z,55.30
2019-01-18T00:42:44.609Z,54.40
2019-01-18T00:45:13.242Z,54.30
2019-01-18T00:47:40.900Z,55.20
2019-01-18T00:50:08.669Z,55.90
2019-01-18T00:52:35.733Z,56.00
2019-01-18T00:55:03.398Z,55.10
2019-01-18T00:57:30.492Z,53.90
2019-01-18T00:59:58.213Z,54.60
2019-01-18T01:02:25.134Z,56.00
2019-01-18T01:04:52.276Z,56.30
2019-01-18T01:07:18.854Z,56.00
2019-01-18T01:09:46.595Z,54.40
2019-01-18T01:12:15.284Z,52.00
2019-01-18T01:14:42.958Z,51.40
2019-01-18T01:17:10.104Z,51.00
2019-01-18T01:19:37.756Z,51.30
2019-01-18T01:22:05.532Z,51.30
2019-01-18T01:24:32.645Z,51.30
2019-01-18T01:26:59.629Z,51.80
2019-01-18T01:29:26.620Z,52.50
2019-01-18T01:31:53.683Z,52.20
2019-01-18T01:34:20.735Z,51.40
2019-01-18T01:36:48.428Z,51.80
2019-01-18T01:39:16.280Z,52.80
2019-01-18T01:41:43.281Z,52.70
2019-01-18T01:44:11.017Z,53.80
2019-01-18T01:46:38.770Z,54.50
2019-01-18T01:49:05.821Z,55.10
2019-01-18T01:51:33.587Z,54.40
2019-01-18T01:54:01.337Z,53.60
2019-01-18T01:56:29.021Z,53.70
2019-01-18T01:58:55.897Z,53.80
2019-01-18T02:01:22.921Z,53.80
2019-01-18T02:03:49.949Z,53.30
2019-01-18T02:06:17.596Z,52.80
2019-01-18T02:08:44.663Z,52.80
2019-01-18T02:11:12.311Z,51.80
2019-01-18T02:13:40.195Z,51.70
2019-01-18T02:16:07.136Z,52.20
2019-01-18T02:18:34.117Z,52.60
2019-01-18T02:21:01.183Z,53.30
2019-01-18T02:23:28.247Z,52.90
2019-01-18T02:25:55.925Z,52.20
2019-01-18T02:28:23.699Z,51.90
2019-01-18T02:30:50.707Z,51.40
2019-01-18T02:33:17.770Z,49.80
2019-01-18T02:35:44.834Z,48.90
2019-01-18T02:38:12.523Z,47.70
2019-01-18T02:40:40.692Z,47.10
2019-01-18T02:43:08.352Z,46.10
2019-01-18T02:45:36.062Z,46.20
2019-01-18T02:48:03.144Z,47.00
2019-01-18T02:50:30.212Z,47.80
2019-01-18T02:52:57.225Z,48.60
2019-01-18T02:55:29.011Z,48.30
2019-01-18T02:57:54.319Z,48.00
2019-01-18T03:00:21.374Z,48.00
2019-01-18T03:02:49.146Z,48.10
2019-01-18T03:05:16.141Z,47.90
2019-01-18T03:07:42.748Z,47.00
2019-01-18T03:10:10.477Z,46.80
2019-01-18T03:12:37.460Z,45.80
2019-01-18T03:15:04.547Z,46.20
2019-01-18T03:17:31.987Z,46.40
2019-01-18T03:19:59.095Z,46.70
2019-01-18T03:22:25.921Z,47.00
2019-01-18T03:24:53.777Z,47.30
2019-01-18T03:27:21.470Z,46.90
2019-01-18T03:29:49.230Z,48.20
2019-01-18T03:32:16.344Z,48.10
2019-01-18T03:34:43.372Z,48.50
2019-01-18T03:37:10.496Z,48.90
2019-01-18T03:39:38.232Z,47.80
2019-01-18T03:42:05.232Z,46.30
2019-01-18T03:44:32.396Z,44.60
2019-01-18T03:47:00.082Z,44.00
2019-01-18T03:49:27.598Z,44.10
2019-01-18T03:51:55.420Z,43.80
2019-01-18T03:54:23.093Z,44.30
2019-01-18T03:56:50.856Z,45.60
2019-01-18T03:59:17.941Z,46.80
2019-01-18T04:01:44.989Z,46.70
2019-01-18T04:04:11.993Z,46.40
2019-01-18T04:06:39.737Z,46.20
2019-01-18T04:09:07.504Z,46.10
2019-01-18T04:11:35.176Z,45.50
2019-01-18T04:14:02.276Z,45.70
2019-01-18T04:16:29.992Z,45.80
2019-01-18T04:18:57.637Z,46.70
2019-01-18T04:21:24.816Z,47.80
2019-01-18T04:23:52.573Z,48.20
2019-01-18T04:26:20.225Z,49.20
2019-01-18T04:28:47.638Z,50.80
2019-01-18T04:31:15.364Z,52.00
2019-01-18T04:33:43.009Z,51.90
2019-01-18T04:36:10.115Z,52.90
2019-01-18T04:38:36.892Z,50.50
2019-01-18T04:41:03.899Z,48.20
2019-01-18T04:43:30.942Z,47.00
2019-01-18T04:45:58.673Z,46.10
2019-01-18T04:48:25.660Z,45.80
2019-01-18T04:50:53.487Z,45.00
2019-01-18T04:53:21.240Z,44.40
2019-01-18T04:55:47.793Z,44.10
2019-01-18T04:58:15.449Z,43.20
2019-01-18T05:00:42.446Z,44.10
2019-01-18T05:03:09.561Z,45.20
2019-01-18T05:05:36.656Z,45.50
2019-01-18T05:08:04.333Z,46.00
2019-01-18T05:10:32.007Z,45.70
2019-01-18T05:12:59.063Z,46.00
2019-01-18T05:15:26.723Z,46.10
2019-01-18T05:17:53.867Z,45.70
2019-01-18T05:20:21.537Z,46.40
2019-01-18T05:22:48.553Z,47.40
2019-01-18T05:25:16.226Z,46.90
2019-01-18T05:27:43.908Z,45.80
2019-01-18T05:30:11.680Z,45.70
2019-01-18T05:32:38.768Z,45.70
2019-01-18T05:35:06.477Z,46.20
2019-01-18T05:37:33.481Z,46.40
2019-01-18T05:40:01.178Z,46.20
2019-01-18T05:42:28.149Z,46.20
2019-01-18T05:44:55.913Z,46.00
2019-01-18T05:47:23.022Z,45.50
2019-01-18T05:49:50.053Z,45.20
2019-01-18T05:52:17.177Z,45.50
2019-01-18T05:54:44.908Z,45.00
2019-01-18T05:57:11.948Z,44.00
2019-01-18T05:59:39.010Z,43.70
2019-01-18T06:02:06.185Z,43.10
2019-01-18T06:04:32.838Z,43.90
2019-01-18T06:07:02.678Z,43.60
2019-01-18T06:09:29.473Z,44.80
2019-01-18T06:11:56.141Z,44.60
2019-01-18T06:14:23.429Z,45.60
2019-01-18T06:16:50.107Z,44.70
2019-01-18T06:19:18.559Z,44.40
2019-01-18T06:21:45.513Z,43.60
2019-01-18T06:24:15.735Z,43.20
2019-01-18T06:26:43.242Z,43.40
2019-01-18T06:29:18.852Z,42.50
2019-01-18T06:31:46.045Z,43.50
2019-01-18T06:34:12.691Z,43.20
2019-01-18T06:36:39.774Z,43.70
2019-01-18T06:39:06.933Z,43.70
2019-01-18T06:41:33.525Z,44.10
2019-01-18T06:44:00.552Z,45.70
2019-01-18T06:46:28.391Z,46.20
2019-01-18T06:48:55.021Z,47.70
2019-01-18T06:51:22.100Z,46.70
2019-01-18T06:53:48.730Z,46.00
2019-01-18T06:56:15.711Z,45.40
2019-01-18T06:58:42.286Z,44.70
2019-01-18T07:01:10.126Z,45.10
2019-01-18T07:03:36.761Z,45.30
2019-01-18T07:06:03.900Z,45.70
2019-01-18T07:08:30.951Z,45.40
2019-01-18T07:10:58.000Z,45.60
2019-01-18T07:13:24.672Z,47.00
2019-01-18T07:15:51.273Z,47.60
2019-01-18T07:18:17.871Z,46.50
2019-01-18T07:20:44.940Z,45.90
2019-01-18T07:23:11.999Z,44.40
2019-01-18T07:25:39.051Z,44.30
2019-01-18T07:28:05.759Z,43.80
2019-01-18T07:30:32.849Z,43.70
2019-01-18T07:33:00.429Z,43.50
2019-01-18T07:35:27.143Z,42.90
2019-01-18T07:37:54.208Z,43.50
2019-01-18T07:40:20.847Z,44.90
2019-01-18T07:42:47.488Z,45.10
2019-01-18T07:45:15.192Z,44.00
2019-01-18T07:47:42.236Z,43.00
2019-01-18T07:50:08.904Z,42.00
2019-01-18T07:52:35.972Z,44.10
2019-01-18T07:55:03.429Z,43.50
2019-01-18T07:57:30.371Z,42.70
2019-01-18T07:59:58.024Z,42.70
2019-01-18T08:02:25.133Z,43.70
2019-01-18T08:04:52.138Z,43.50
2019-01-18T08:07:19.544Z,43.90
2019-01-18T08:09:46.225Z,45.20
2019-01-18T08:12:13.336Z,46.00
2019-01-18T08:14:40.434Z,46.30
2019-01-18T08:17:08.010Z,46.80
2019-01-18T08:19:35.146Z,47.40
2019-01-18T08:22:02.242Z,46.70
2019-01-18T08:24:29.364Z,46.80
2019-01-18T08:26:56.029Z,46.50
2019-01-18T08:29:23.612Z,47.80
2019-01-18T08:31:50.268Z,48.00
2019-01-18T08:34:16.879Z,49.60
2019-01-18T08:36:43.990Z,49.50
2019-01-18T08:39:10.609Z,48.50
2019-01-18T08:41:37.644Z,48.60
2019-01-18T08:44:04.318Z,48.70
2019-01-18T08:46:31.407Z,47.40
2019-01-18T08:48:58.555Z,46.90
2019-01-18T08:51:25.308Z,47.70
2019-01-18T08:53:52.303Z,48.30
2019-01-18T08:56:19.024Z,49.60
2019-01-18T08:58:46.213Z,50.80
2019-01-18T09:01:14.140Z,49.80
2019-01-18T09:03:40.826Z,49.50
2019-01-18T09:06:07.585Z,49.10
2019-01-18T09:08:34.693Z,48.50
2019-01-18T09:11:01.737Z,47.70
2019-01-18T09:13:28.896Z,47.10
2019-01-18T09:15:55.620Z,46.40
2019-01-18T09:18:22.679Z,45.60
2019-01-18T09:20:49.911Z,44.30
2019-01-18T09:23:16.571Z,45.00
2019-01-18T09:25:43.276Z,45.40
2019-01-18T09:28:10.372Z,45.10
2019-01-18T09:30:37.214Z,45.40
2019-01-18T09:33:04.309Z,45.00
2019-01-18T09:35:32.106Z,45.30
2019-01-18T09:37:59.174Z,47.40
2019-01-18T09:40:25.783Z,49.70
2019-01-18T09:42:52.911Z,51.10
2019-01-18T09:45:19.518Z,51.30
2019-01-18T09:47:46.108Z,51.80
2019-01-18T09:50:13.127Z,52.30
2019-01-18T09:52:39.734Z,51.90
2019-01-18T09:55:06.336Z,52.50
2019-01-18T09:57:33.257Z,51.90
2019-01-18T09:59:59.868Z,52.50
2019-01-18T10:02:26.687Z,51.90
2019-01-18T10:04:53.770Z,51.70
2019-01-18T10:07:20.993Z,52.40
2019-01-18T10:09:48.047Z,52.60
2019-01-18T10:12:14.748Z,52.00
2019-01-18T10:14:41.351Z,50.50
2019-01-18T10:17:08.425Z,49.80
2019-01-18T10:19:35.459Z,49.30
2019-01-18T10:22:02.529Z,49.40
2019-01-18T10:24:29.095Z,49.10
2019-01-18T10:26:56.201Z,49.40
2019-01-18T10:29:28.142Z,49.60
2019-01-18T10:31:56.067Z,48.90
2019-01-18T10:34:20.601Z,48.90
2019-01-18T10:36:47.662Z,49.60
2019-01-18T10:39:15.357Z,50.10
2019-01-18T10:41:43.131Z,50.20
2019-01-18T10:44:09.762Z,51.30
2019-01-18T10:46:37.283Z,52.20
2019-01-18T10:49:03.919Z,52.00
2019-01-18T10:51:30.973Z,52.20
2019-01-18T10:53:57.671Z,51.80
2019-01-18T10:56:24.738Z,51.10
2019-01-18T10:58:51.863Z,49.70
2019-01-18T11:01:20.038Z,48.60
2019-01-18T11:03:47.250Z,48.50
2019-01-18T11:06:13.895Z,49.40
2019-01-18T11:08:41.044Z,50.50
2019-01-18T11:11:08.263Z,52.10
2019-01-18T11:13:35.404Z,52.70
2019-01-18T11:16:02.497Z,52.70
2019-01-18T11:18:29.102Z,52.70
2019-01-18T11:20:55.706Z,51.80
2019-01-18T11:23:22.807Z,51.80
2019-01-18T11:25:49.377Z,50.90
2019-01-18T11:28:16.020Z,50.40
2019-01-18T11:30:43.129Z,50.50
2019-01-18T11:33:10.167Z,50.60
2019-01-18T11:35:37.235Z,51.30
2019-01-18T11:38:03.903Z,52.20
2019-01-18T11:40:30.592Z,52.70
2019-01-18T11:42:57.645Z,52.40
2019-01-18T11:45:24.292Z,50.90
2019-01-18T11:47:51.352Z,50.00
2019-01-18T11:50:17.953Z,50.30
2019-01-18T11:52:44.612Z,50.50
2019-01-18T11:55:11.661Z,51.20
2019-01-18T11:57:38.238Z,52.00
2019-01-18T12:00:05.238Z,52.20
2019-01-18T12:02:32.308Z,52.40
2019-01-18T12:04:59.042Z,52.60
2019-01-18T12:07:25.706Z,52.50
2019-01-18T12:09:52.799Z,51.60
2019-01-18T12:12:19.441Z,52.20
2019-01-18T12:14:46.086Z,53.70
2019-01-18T12:17:13.702Z,52.90
2019-01-18T12:19:40.476Z,52.10
2019-01-18T12:22:07.210Z,52.30
2019-01-18T12:24:34.306Z,52.40
2019-01-18T12:27:00.902Z,52.30
2019-01-18T12:29:27.551Z,52.20
2019-01-18T12:31:54.165Z,52.10
2019-01-18T12:34:20.743Z,51.10
2019-01-18T12:36:47.863Z,50.70
2019-01-18T12:39:14.686Z,50.60
2019-01-18T12:41:41.435Z,50.50
2019-01-18T12:44:08.502Z,50.20
2019-01-18T12:46:35.583Z,50.40
2019-01-18T12:49:02.157Z,51.20
2019-01-18T12:51:29.275Z,51.80
2019-01-18T12:53:56.005Z,51.50
2019-01-18T12:56:22.652Z,51.60
2019-01-18T12:58:49.665Z,52.10
2019-01-18T13:01:16.843Z,52.20
2019-01-18T13:03:44.556Z,52.30
2019-01-18T13:06:12.089Z,51.80
2019-01-18T13:08:38.820Z,51.70
2019-01-18T13:11:05.856Z,51.60
2019-01-18T13:13:32.491Z,51.70
2019-01-18T13:15:59.159Z,51.60
2019-01-18T13:18:25.811Z,51.50
2019-01-18T13:20:52.479Z,51.10
2019-01-18T13:23:19.750Z,50.30
2019-01-18T13:25:46.447Z,49.70
2019-01-18T13:28:13.133Z,50.00
2019-01-18T13:30:39.834Z,50.00
2019-01-18T13:33:06.892Z,49.80
2019-01-18T13:35:33.689Z,49.50
2019-01-18T13:38:00.372Z,49.80
2019-01-18T13:40:28.125Z,51.00
2019-01-18T13:42:54.852Z,50.40
2019-01-18T13:45:24.443Z,50.40
2019-01-18T13:47:51.048Z,50.50
2019-01-18T13:50:18.142Z,50.30
2019-01-18T13:52:44.864Z,49.50
2019-01-18T13:55:11.965Z,48.90
2019-01-18T13:57:39.087Z,49.30
2019-01-18T14:00:05.747Z,49.10
2019-01-18T14:02:32.781Z,48.70
2019-01-18T14:04:59.913Z,48.30
2019-01-18T14:07:26.544Z,48.10
2019-01-18T14:09:53.699Z,47.90
2019-01-18T14:12:20.310Z,49.00
2019-01-18T14:14:47.006Z,48.70
2019-01-18T14:17:14.168Z,48.00
2019-01-18T14:19:40.875Z,47.60
2019-01-18T14:22:08.485Z,47.40
2019-01-18T14:24:35.585Z,48.20
2019-01-18T14:27:03.641Z,47.20
2019-01-18T14:29:30.762Z,46.60
2019-01-18T14:31:57.554Z,46.80
2019-01-18T14:34:26.638Z,46.70
2019-01-18T14:36:53.332Z,46.50
2019-01-18T14:39:20.545Z,46.50
2019-01-18T14:41:47.262Z,46.60
2019-01-18T14:44:14.316Z,47.20
2019-01-18T14:46:41.057Z,46.60
2019-01-18T14:49:08.133Z,46.40
2019-01-18T14:51:34.816Z,45.90
2019-01-18T14:54:02.062Z,45.50
2019-01-18T14:56:29.165Z,45.00
2019-01-18T14:58:56.216Z,43.80
2019-01-18T15:01:23.336Z,42.90
2019-01-18T15:03:54.082Z,42.10
2019-01-18T15:06:18.386Z,42.50
2019-01-18T15:08:45.505Z,42.70
2019-01-18T15:11:12.584Z,42.60
2019-01-18T15:13:39.236Z,42.60
2019-01-18T15:16:05.973Z,42.10
2019-01-18T15:18:32.679Z,40.90
2019-01-18T15:20:59.756Z,40.90
2019-01-18T15:23:26.902Z,41.00
2019-01-18T15:25:53.616Z,41.10
2019-01-18T15:28:20.245Z,41.10
2019-01-18T15:30:47.371Z,41.50
2019-01-18T15:33:13.984Z,42.50
2019-01-18T15:35:40.566Z,42.90
2019-01-18T15:38:08.367Z,43.00
2019-01-18T15:40:35.550Z,43.10
2019-01-18T15:43:02.666Z,43.10
2019-01-18T15:45:29.449Z,43.10
2019-01-18T15:47:56.133Z,42.90
2019-01-18T15:50:22.844Z,42.60
2019-01-18T15:52:50.038Z,42.70
2019-01-18T15:55:16.703Z,42.80
2019-01-18T15:57:43.370Z,42.40
2019-01-18T16:00:10.391Z,42.80
2019-01-18T16:02:37.029Z,43.10
2019-01-18T16:05:04.100Z,43.10
2019-01-18T16:07:31.124Z,42.70
2019-01-18T16:09:58.248Z,42.30
2019-01-18T16:12:25.291Z,41.50
2019-01-18T16:14:52.245Z,41.30
2019-01-18T16:17:19.436Z,40.90
2019-01-18T16:19:47.203Z,41.20
2019-01-18T16:22:15.088Z,40.90
2019-01-18T16:24:41.720Z,41.90
2019-01-18T16:27:08.577Z,42.20
2019-01-18T16:29:41.666Z,41.90
2019-01-18T16:32:08.291Z,42.70
2019-01-18T16:34:35.364Z,42.70
2019-01-18T16:37:02.471Z,42.70
2019-01-18T16:39:29.772Z,42.50
2019-01-18T16:41:56.385Z,41.60
2019-01-18T16:44:23.538Z,41.40
2019-01-18T16:46:50.593Z,41.10
2019-01-18T16:49:17.259Z,41.00
2019-01-18T16:51:44.225Z,40.90
2019-01-18T16:54:10.905Z,42.30
2019-01-18T16:56:38.004Z,42.30
2019-01-18T16:59:05.169Z,42.60
2019-01-18T17:01:31.880Z,43.50
2019-01-18T17:03:58.564Z,43.40
2019-01-18T17:06:25.292Z,42.50
2019-01-18T17:08:52.428Z,41.50
2019-01-18T17:11:19.115Z,41.10
2019-01-18T17:13:46.382Z,40.70
2019-01-18T17:16:13.025Z,41.00
2019-01-18T17:18:39.718Z,41.10
2019-01-18T17:21:06.826Z,41.20
2019-01-18T17:23:33.904Z,41.50
2019-01-18T17:26:00.926Z,40.80
2019-01-18T17:28:27.744Z,40.60
2019-01-18T17:30:54.820Z,39.70
2019-01-18T17:33:21.865Z,38.90
2019-01-18T17:35:48.606Z,38.40
2019-01-18T17:38:15.294Z,38.40
2019-01-18T17:40:42.402Z,38.30
2019-01-18T17:43:09.177Z,39.20
2019-01-18T17:45:36.654Z,40.30
2019-01-18T17:48:03.676Z,41.50
2019-01-18T17:50:30.366Z,42.20
2019-01-18T17:52:57.061Z,42.00
2019-01-18T17:55:24.949Z,42.10
2019-01-18T17:57:51.663Z,42.30
2019-01-18T18:00:18.784Z,42.10
2019-01-18T18:02:45.960Z,41.90
2019-01-18T18:05:12.645Z,41.60
2019-01-18T18:07:39.915Z,41.20
2019-01-18T18:10:06.595Z,40.80
2019-01-18T18:12:33.695Z,40.60
2019-01-18T18:15:00.455Z,39.70
2019-01-18T18:17:27.179Z,39.20
2019-01-18T18:19:54.683Z,39.20
2019-01-18T18:22:21.806Z,40.30
2019-01-18T18:24:48.835Z,40.10
2019-01-18T18:27:15.604Z,40.90
2019-01-18T18:29:42.349Z,40.60
2019-01-18T18:32:09.008Z,40.30
2019-01-18T18:34:36.153Z,40.10
2019-01-18T18:37:02.884Z,39.50
2019-01-18T18:39:31.027Z,39.40
2019-01-18T18:41:57.684Z,39.60
2019-01-18T18:44:24.348Z,40.80
2019-01-18T18:46:51.112Z,42.00
2019-01-18T18:49:20.174Z,42.80
2019-01-18T18:51:50.426Z,43.70
2019-01-18T18:54:18.147Z,44.50
2019-01-18T18:56:45.080Z,44.80
2019-01-18T18:59:11.754Z,45.00
2019-01-18T19:01:38.472Z,45.10
2019-01-18T19:04:05.166Z,44.30
2019-01-18T19:06:31.903Z,43.00
2019-01-18T19:08:59.035Z,42.70
2019-01-18T19:11:25.764Z,42.90
2019-01-18T19:13:52.428Z,43.00
2019-01-18T19:16:19.505Z,42.70
2019-01-18T19:18:46.578Z,43.00
2019-01-18T19:21:14.407Z,43.00
2019-01-18T19:23:41.591Z,42.70
2019-01-18T19:26:08.294Z,42.20
2019-01-18T19:28:35.383Z,41.50
2019-01-18T19:31:02.506Z,41.50
2019-01-18T19:33:29.555Z,41.60
2019-01-18T19:35:56.256Z,41.70
2019-01-18T19:38:23.360Z,41.50
2019-01-18T19:40:50.915Z,40.70
2019-01-18T19:43:17.974Z,40.60
2019-01-18T19:45:44.703Z,40.60
2019-01-18T19:48:11.927Z,40.90
2019-01-18T19:50:39.048Z,41.50
2019-01-18T19:53:05.817Z,41.60
2019-01-18T19:55:32.458Z,41.70
2019-01-18T19:57:59.653Z,41.50
2019-01-18T20:00:26.801Z,41.20
2019-01-18T20:02:53.559Z,40.80
2019-01-18T20:05:21.888Z,41.10
2019-01-18T20:07:49.342Z,41.20
2019-01-18T20:10:16.526Z,41.30
2019-01-18T20:12:43.249Z,41.60
2019-01-18T20:15:10.075Z,41.60
2019-01-18T20:17:36.774Z,41.60
2019-01-18T20:20:03.931Z,41.70
2019-01-18T20:22:31.230Z,41.80
2019-01-18T20:24:57.923Z,41.80
2019-01-18T20:27:24.646Z,41.50
2019-01-18T20:29:51.336Z,41.40
2019-01-18T20:32:18.568Z,40.60
2019-01-18T20:34:45.831Z,40.30
2019-01-18T20:37:12.908Z,39.90
2019-01-18T20:39:40.038Z,39.60
2019-01-18T20:42:07.223Z,39.50
2019-01-18T20:44:33.958Z,39.30
2019-01-18T20:47:00.611Z,39.10
2019-01-18T20:49:27.413Z,39.10
2019-01-18T20:51:54.067Z,39.10
2019-01-18T20:54:21.820Z,40.10
2019-01-18T20:56:49.635Z,40.80
2019-01-18T20:59:16.945Z,40.70
2019-01-18T21:01:44.498Z,40.10
2019-01-18T21:04:11.240Z,39.70
2019-01-18T21:06:37.979Z,40.30
2019-01-18T21:09:05.411Z,41.00
2019-01-18T21:11:32.787Z,42.20
2019-01-18T21:14:01.822Z,42.60
2019-01-18T21:16:28.626Z,42.60
2019-01-18T21:18:55.853Z,42.70
2019-01-18T21:21:23.552Z,42.80
2019-01-18T21:23:51.282Z,42.50
2019-01-18T21:26:18.475Z,42.10
2019-01-18T21:28:45.140Z,41.80
2019-01-18T21:31:12.146Z,42.20
2019-01-18T21:33:39.295Z,42.10
2019-01-18T21:36:06.627Z,42.50
2019-01-18T21:38:33.579Z,42.70
2019-01-18T21:41:01.048Z,42.70
2019-01-18T21:43:28.326Z,42.70
2019-01-18T21:45:55.061Z,42.70
2019-01-18T21:48:22.135Z,42.80
2019-01-18T21:50:51.158Z,42.50
2019-01-18T21:53:18.625Z,42.90
2019-01-18T21:55:45.846Z,41.80
2019-01-18T21:58:14.427Z,41.50
2019-01-18T22:00:41.635Z,40.50
2019-01-18T22:03:09.011Z,40.40
2019-01-18T22:05:35.778Z,40.10
2019-01-18T22:08:02.514Z,39.70
2019-01-18T22:10:34.514Z,39.80
2019-01-18T22:13:02.601Z,39.80
2019-01-18T22:15:29.969Z,40.00
2019-01-18T22:17:56.755Z,40.60
2019-01-18T22:20:25.172Z,41.50
2019-01-18T22:22:52.560Z,42.10
2019-01-18T22:25:19.398Z,42.60
2019-01-18T22:27:46.447Z,42.80
2019-01-18T22:30:13.309Z,43.30
2019-01-18T22:32:40.403Z,42.70
2019-01-18T22:35:07.511Z,42.70
2019-01-18T22:37:34.381Z,42.20
2019-01-18T22:40:01.423Z,41.40
2019-01-18T22:42:28.183Z,40.70
2019-01-18T22:44:55.300Z,40.10
2019-01-18T22:47:23.102Z,39.50
2019-01-18T22:49:50.865Z,39.40
2019-01-18T22:52:17.876Z,39.20
2019-01-18T22:54:45.718Z,38.90
2019-01-18T22:57:12.835Z,38.60
2019-01-18T22:59:39.861Z,38.80
2019-01-18T23:02:06.990Z,38.90
2019-01-18T23:04:33.790Z,38.80
2019-01-18T23:07:00.440Z,38.60
2019-01-18T23:09:28.152Z,38.60
2019-01-18T23:11:54.894Z,38.90
2019-01-18T23:14:21.638Z,39.10
2019-01-18T23:16:48.757Z,39.10
2019-01-18T23:19:15.909Z,39.00
2019-01-18T23:21:42.602Z,38.70
2019-01-18T23:24:09.301Z,38.80
2019-01-18T23:26:36.063Z,38.70
2019-01-18T23:29:02.846Z,38.90
2019-01-18T23:31:29.938Z,39.30
2019-01-18T23:33:56.609Z,39.40
2019-01-18T23:36:23.709Z,39.10
2019-01-18T23:38:50.407Z,38.80
2019-01-18T23:41:17.159Z,39.10
2019-01-18T23:43:44.210Z,38.90
2019-01-18T23:46:11.287Z,39.30
2019-01-18T23:48:38.414Z,39.60
2019-01-18T23:51:05.475Z,39.50
2019-01-18T23:53:32.637Z,39.20
2019-01-18T23:55:59.762Z,38.60
2019-01-18T23:58:27.486Z,38.30
